HEMM

Mersa Matruh Airport

Mersa Matruh, Egypt
METAR HEMM 201400Z 33012KT 9999 FEW020 29/22 Q1010 NOSIG
Observed Flight Rules
Jul-20 @ 14:00 UTC (39 minutes ago) Visual Flight Rules
Wind Visibility Clouds
330° at 12 knots 10,000+ meters
  • Few at 2,000' AGL
Temperatures Readings
Current 29°C / 84°F
Dewpoint 22°C / 72°F
Humidity 66%
Altimeter 29.82" Hg
Pressure 1010 hPa
Elevation 30
METAR HEMM 201400Z 33012KT 9999 FEW020 29/22 Q1010 NOSIG
Observed Flight Rules
Jul-20 @ 14:00 UTC
(39 minutes ago)
VFR
Wind Visibility
330° at 12 knots 10,000+ meters
Clouds
  • Few at 2,000' AGL
Temperature Dewpoint
29°C / 84°F 22°C / 72°F
Humidity Altimeter Pressure
66% 29.82" Hg 1010 hPa